• Join FlightAware (Why Join?)
  • Login
  • US Flag 
Gobble Gobble! 
04:33AM EST


 

Airport Tracker/Info


-or-


 

Live Flight TrackerFlight Track Log ✈ SWA662 ✈ 07-Jun-2013 ✈ KLAX - KDEN

Flight Track Log - Related Links

Times and Time Zones

All times are in EDT time to prevent confusion due to time zone crossing. See the SWA662 flight status page for this flight to view local times or setup timezone preferences in your user account.

Time Position Orientation Groundspeed Altitude Reporting Facility
EDT Latitude Longitude Course Direction KTS MPH feet Rate Location/Type
11:10PM 33.9500 -118.4500 259° West 160 184 1,300  Level Southern California TRACON
11:11PM 33.9386 -118.5231 259° West 223 257 3,000 1,980 Climbing Los Angeles Center
11:12PM 33.9306 -118.6058 263° West 247 284 5,700 2,640 Climbing Los Angeles Center
11:13PM 33.8656 -118.6336 200° South 261 300 8,500 2,640 Climbing Los Angeles Center
11:14PM 33.8308 -118.5767 126° Southeast 260 299 11,200 2,760 Climbing Los Angeles Center
11:15PM 33.8764 -118.5097 51° Northeast 262 302 14,200 1,920 Climbing Los Angeles Center
11:16PM 33.9281 -118.4400 48° Northeast 269 310 15,200 1,740 Climbing Los Angeles Center
11:17PM 33.9767 -118.3581 54° Northeast 291 335 17,800 1,560 Climbing Los Angeles Center
11:18PM 34.0292 -118.2642 56° Northeast 326 375 18,800 1,260 Climbing Los Angeles Center
11:19PM 34.1022 -118.1336 56° Northeast 382 440 21,000 2,100 Climbing Los Angeles Center
11:20PM 34.1783 -118.0000 55° Northeast 398 458 23,600 2,160 Climbing Los Angeles Center
11:21PM 34.2444 -117.8864 55° Northeast 408 470 25,500 1,920 Climbing Los Angeles Center
11:23PM 34.3367 -117.7578 49° Northeast 420 483 27,600 1,560 Climbing Los Angeles Center
11:24PM 34.4022 -117.6619 50° Northeast 426 490 28,800 1,380 Climbing Los Angeles Center
11:25PM 34.4794 -117.5492 50° Northeast 435 501 30,500 1,980 Climbing Los Angeles Center
11:26PM 34.5700 -117.4186 50° Northeast 426 490 32,900 1,620 Climbing Los Angeles Center
11:27PM 34.6433 -117.3094 51° Northeast 422 486 33,900 1,020 Climbing Los Angeles Center
11:28PM 34.7194 -117.1986 50° Northeast 430 495 35,000 480 Climbing Los Angeles Center
11:29PM 34.7953 -117.0883 50° Northeast 429 494 35,000  Level Los Angeles Center
11:30PM 34.8703 -116.9781 50° Northeast 426 490 35,000  Level Los Angeles Center
11:31PM 34.9461 -116.8675 50° Northeast 427 491 35,000  Level Los Angeles Center
11:32PM 35.0347 -116.7347 51° Northeast 420 483 35,000  Level Los Angeles Center
11:33PM 35.1089 -116.6267 50° Northeast 420 483 35,000  Level Los Angeles Center
11:34PM 35.1811 -116.5183 51° Northeast 415 478 35,000  Level Los Angeles Center
11:35PM 35.2383 -116.4331 51° Northeast 411 473 35,000  Level Los Angeles Center
11:36PM 35.3231 -116.3067 51° Northeast 406 467 35,000  Level Los Angeles Center
11:37PM 35.3936 -116.2019 50° Northeast 403 464 35,000  Level Los Angeles Center
11:38PM 35.4775 -116.0747 51° Northeast 401 461 35,000  Level Los Angeles Center
11:39PM 35.5478 -115.9683 51° Northeast 401 461 35,000  Level Los Angeles Center
11:40PM 35.6183 -115.8594 51° Northeast 404 465 35,000  Level Los Angeles Center
11:41PM 35.6894 -115.7578 49° Northeast 399 459 35,000  Level Los Angeles Center
11:42PM 35.7586 -115.6522 51° Northeast 397 457 35,000  Level Los Angeles Center
11:43PM 35.8275 -115.5456 51° Northeast 398 458 35,000  Level Los Angeles Center
11:44PM 35.8969 -115.4417 50° Northeast 397 457 35,000  Level Los Angeles Center
11:45PM 35.9656 -115.3367 51° Northeast 396 456 35,000  Level Los Angeles Center
11:46PM 36.0475 -115.2097 51° Northeast 398 458 35,000  Level Los Angeles Center
11:47PM 36.1011 -115.0897 61° Northeast 401 461 35,000  Level Los Angeles Center
11:48PM 36.1394 -114.9619 70° East 399 459 35,000  Level Los Angeles Center
11:49PM 36.1794 -114.8344 69° East 399 459 35,000  Level Los Angeles Center
11:50PM 36.2192 -114.7053 69° East 402 463 35,000  Level Los Angeles Center
11:51PM 36.2658 -114.5489 70° East 403 464 35,000  Level Los Angeles Center
11:52PM 36.2975 -114.4439 69° East 406 467 35,000  Level Los Angeles Center
11:53PM 36.3461 -114.2869 69° East 406 467 35,000  Level Los Angeles Center
11:54PM 36.3892 -114.1564 68° East 409 471 35,000  Level Los Angeles Center
11:55PM 36.4261 -114.0525 66° East 411 473 35,000  Level Los Angeles Center
11:56PM 36.4803 -113.8975 66° East 409 471 35,000  Level Los Angeles Center
11:57PM 36.5308 -113.7508 67° East 407 468 35,000  Level Los Angeles Center
11:58PM 36.5750 -113.6217 67° East 407 468 35,000  Level Los Angeles Center
11:59PM 36.6203 -113.4919 66° East 409 471 35,000  Level Los Angeles Center
12:01AM 36.6642 -113.3597 67° East 413 475 35,000  Level Los Angeles Center
12:02AM 36.7008 -113.2547 66° East 414 476 35,000  Level Los Angeles Center
12:03AM 36.7542 -113.0981 67° East 413 475 35,000  Level Los Angeles Center
12:04AM 36.8069 -112.9417 67° East 410 472 35,000  Level Los Angeles Center
12:05AM 36.8517 -112.8094 67° East 414 476 35,000  Level Los Angeles Center
12:06AM 36.8958 -112.6775 67° East 414 476 35,000  Level Los Angeles Center
12:07AM 36.9400 -112.5472 67° East 411 473 35,000  Level Los Angeles Center
12:08AM 36.9842 -112.4156 67° East 413 475 35,000  Level Los Angeles Center
12:09AM 37.0364 -112.2575 67° East 413 475 35,000  Level Los Angeles Center
12:10AM 37.0714 -112.1539 67° East 409 471 35,000  Level Los Angeles Center
12:11AM 37.1219 -111.9939 68° East 414 476 35,000  Level Los Angeles Center
12:12AM 37.1672 -111.8614 67° East 416 479 35,000  Level Los Angeles Center
12:13AM 37.2028 -111.7528 68° East 418 481 35,000  Level Denver Center
12:14AM 37.2436 -111.6214 69° East 411 473 35,000  Level Denver Center
12:15AM 37.2856 -111.4881 68° East 411 473 35,000  Level Denver Center
12:16AM 37.3294 -111.3522 68° East 420 483 35,000  Level Denver Center
12:17AM 37.3739 -111.2156 68° East 424 488 35,000  Level Denver Center
12:18AM 37.4167 -111.0797 68° East 420 483 35,000  Level Denver Center
12:19AM 37.4672 -110.9175 69° East 417 480 35,000  Level Denver Center
12:20AM 37.5106 -110.7819 68° East 418 481 35,000  Level Denver Center
12:21AM 37.5614 -110.6158 69° East 423 487 35,000  Level Denver Center
12:22AM 37.5992 -110.4936 69° East 427 491 35,000  Level Denver Center
12:23AM 37.6469 -110.3381 69° East 425 489 35,000  Level Denver Center
12:24AM 37.6881 -110.2061 68° East 423 487 35,000  Level Denver Center
12:25AM 37.7353 -110.0506 69° East 425 489 35,000  Level Denver Center
12:26AM 37.7758 -109.9178 69° East 423 487 35,000  Level Denver Center
12:27AM 37.8161 -109.7847 69° East 423 487 35,000  Level Denver Center
12:28AM 37.8636 -109.6272 69° East 428 493 35,000  Level Denver Center
12:29AM 37.9039 -109.4931 69° East 427 491 35,000  Level Denver Center
12:30AM 37.9444 -109.3581 69° East 427 491 35,000  Level Denver Center
12:31AM 37.9919 -109.2008 69° East 428 493 35,000  Level Denver Center
12:32AM 38.0308 -109.0642 70° East 430 495 35,000  Level Denver Center
12:33AM 38.0719 -108.9231 70° East 433 498 35,000  Level Denver Center
12:34AM 38.1172 -108.7656 70° East 430 495 35,000  Level Denver Center
12:35AM 38.1564 -108.6297 70° East 429 494 35,000  Level Denver Center
12:36AM 38.1967 -108.4950 69° East 427 491 35,000  Level Denver Center
12:37AM 38.2422 -108.3347 70° East 432 497 35,000  Level Denver Center
12:38AM 38.2817 -108.1978 70° East 432 497 35,000  Level Denver Center
12:39AM 38.3264 -108.0372 70° East 434 499 35,000  Level Denver Center
12:40AM 38.3658 -107.9000 70° East 431 496 35,000  Level Denver Center
12:42AM 38.4178 -107.7153 70° East 435 501 35,000  Level Denver Center
12:43AM 38.4578 -107.5778 70° East 432 497 35,000  Level Denver Center
12:44AM 38.5144 -107.4547 59° Northeast 424 488 35,000  Level Denver Center
12:45AM 38.5800 -107.3078 60° Northeast 427 491 35,000  Level Denver Center
12:46AM 38.6389 -107.1756 60° Northeast 423 487 35,000  Level Denver Center
12:47AM 38.6972 -107.0450 60° Northeast 425 489 35,000  Level Denver Center
12:48AM 38.7558 -106.9136 60° Northeast 425 489 35,000  Level Denver Center
12:49AM 38.8133 -106.7822 61° Northeast 426 490 35,000  Level Denver Center
12:50AM 38.8700 -106.6517 61° Northeast 422 486 35,000  Level Denver Center
12:51AM 38.9328 -106.5169 59° Northeast 421 484 35,000 -240 Level Denver Center
12:52AM 38.9914 -106.3939 58° Northeast 423 487 34,600 -1,680 Descending Denver Center
12:53AM 39.0553 -106.2492 60° Northeast 419 482 31,600 -2,460 Descending Denver Center
12:54AM 39.1103 -106.1283 60° Northeast 416 479 29,700 -1,860 Descending Denver Center
12:55AM 39.1650 -106.0044 60° Northeast 403 464 27,900 -1,920 Descending Denver Center
12:56AM 39.2178 -105.8842 60° Northeast 390 449 25,900 -1,920 Descending Denver Center
12:57AM 39.2689 -105.7672 61° Northeast 379 436 24,100 -1,620 Descending Denver Center
12:58AM 39.3214 -105.6497 60° Northeast 377 434 22,700 -1,440 Descending Denver Center
12:59AM 39.3722 -105.5322 61° Northeast 376 433 21,200 -1,380 Descending Denver Center
01:00AM 39.4317 -105.4094 58° Northeast 348 400 19,900 -1,320 Descending Denver Center
01:01AM 39.4856 -105.3122 54° Northeast 337 388 18,600 -1,380 Descending Denver Center
01:02AM 39.5350 -105.2125 57° Northeast 330 380 17,200 -840 Descending Denver Center
01:03AM 39.5858 -105.1203 54° Northeast 317 365 17,000 -180 Descending Denver Center
01:04AM 39.6344 -105.0236 57° Northeast 322 371 16,900 -960 Descending Denver Center
01:05AM 39.7117 -104.9722 27° Northeast 313 360 15,100 -1,680 Descending Denver Center
01:06AM 39.7858 -104.9233 27° Northeast 301 346 13,600 -1,440 Descending Denver Center
01:07AM 39.8597 -104.8772 26° Northeast 295 339 12,200 -1,740 Descending Denver Center
01:08AM 39.9228 -104.8361 27° Northeast 251 289 10,200 -1,800 Descending Denver Center
01:09AM 39.9817 -104.7986 26° Northeast 236 272 8,600 -1,380 Descending Denver Center
01:10AM 39.9850 -104.7211 87° East 219 252 7,500 -1,140 Descending Denver Center
01:11AM 39.9486 -104.6858 143° Southeast 159 183 6,400 -960 Descending Denver Center
01:12AM 39.9061 -104.6867 181° South 152 175 5,600 -840 Descending Denver Center
01:14AM 39.8617 -104.6732 180° South  Level Estimated
01:21AM 39.8617 -104.6732 180° South  Level Estimated
01:22AM 39.8617 -104.6732 180° South  Level Estimated
01:23AM 39.8617 -104.6732 180° South  Level Estimated